메인 페이지
METAR-TAF:

METAR-TAF

공항 :

부다페스트 리스트 페렌츠 국제공항

부다페스트, 헝가리

위도: 47-26N, 경도: 019-16E, 고도: 151m

현재 날씨관측

예보는 37분 전, 22:30시(UTC)에 발표되었습니다.
동남동12kt
온도 10°C
습도 87%
기압 1016 hPa
시정 10km 이상
고도 1000ft 상공 구름 조금
고도 2500ft 상공 구름 보통
고도 7000ft 상공 구름 많음
약한소나기

METAR: LHBP 232230Z 11012KT 9999 -SHRA FEW010 SCT025 BKN070 10/08 Q1016 NOSIG

시각: 01:07 (23:07 UTC)

예보

예보는 5 시간 52분 전, 17:15시(UTC)에 발표되었습니다.
예보 대상 시간: 23일 18시부터 24일 18시까지 (UTC)
동남동12kt, 순간 최대 풍속 23kt
시정 10km 이상
고도 4000ft 상공 흐림
일시적
23일 18시부터 23일 23시까지 (UTC)
고도 2000ft 상공 구름 많음
고도 3000ft 상공 흐림
약한소나기, 약한비
전환 중
23일 23시부터 24일 02시까지 (UTC)
시정 10km 이상
1500m 미만 상공 구름 및 적란운 없음
일시적
24일 08시부터 24일 12시까지 (UTC)
고도 2500ft 상공 구름 많음
일시적
24일 17시부터 24일 18시까지 (UTC)
고도 5000ft 상공 구름 보통, 타워링 적운.
약한소나기

TAF: LHBP 231715Z 2318/2418 11012G23KT 9999 OVC040 TEMPO 2318/2323 -SHRA -RA BKN020 OVC030 BECMG 2323/2402 CAVOK TEMPO 2408/2412 BKN025 TEMPO 2417/2418 -SHRA SCT050TCU

4,000개 이상의 공항 관측 자료 및 예보 (METAR 및 TAF 보고).

지도상에서 검색 가능한 기상관측소가 노란 점과 빨간 점으로 표시되어 있습니다.

기상관측소 명을 보려면 표시 위로 마우스를 이동하세요.

날씨 관측과 예보를 보려면 클릭하세요.

지도 변경 : 확대하려면 엑스 표시가 있는 녹색 버튼, 축소하려면 빼기 표시가 있는 녹색 버튼, 다음 페이지의 지도를 보려면 녹색 화살표를 클릭하세요.


METAR-TAF: